createdAt,value
2022-12-07T00:01:46.073Z,4.93
2022-12-07T00:04:15.775Z,5.40
2022-12-07T00:09:16.163Z,5.57
2022-12-07T00:11:43.543Z,4.65
2022-12-07T00:14:15.812Z,5.00
2022-12-07T00:16:43.566Z,4.85
2022-12-07T00:19:12.378Z,4.95
2022-12-07T00:21:39.613Z,5.63
2022-12-07T00:24:06.638Z,4.57
2022-12-07T00:26:39.118Z,5.38
2022-12-07T00:29:18.245Z,5.38
2022-12-07T00:31:46.135Z,4.83
2022-12-07T00:34:15.706Z,6.03
2022-12-07T00:36:42.812Z,5.07
2022-12-07T00:39:09.785Z,5.15
2022-12-07T00:41:36.608Z,5.47
2022-12-07T00:44:03.512Z,5.28
2022-12-07T00:46:31.897Z,5.10
2022-12-07T00:48:58.704Z,4.95
2022-12-07T00:51:26.640Z,5.22
2022-12-07T00:53:53.955Z,5.13
2022-12-07T00:56:29.262Z,4.95
2022-12-07T00:59:04.751Z,5.13
2022-12-07T01:01:36.859Z,5.28
2022-12-07T01:04:04.076Z,5.05
2022-12-07T01:06:32.016Z,4.88
2022-12-07T01:08:59.182Z,5.00
2022-12-07T01:11:28.914Z,4.57
2022-12-07T01:13:58.163Z,4.75
2022-12-07T01:16:27.228Z,5.38
2022-12-07T01:18:55.430Z,4.80
2022-12-07T01:21:33.715Z,4.93
2022-12-07T01:24:01.135Z,4.32
2022-12-07T01:26:28.229Z,5.15
2022-12-07T01:28:56.178Z,5.15
2022-12-07T01:31:24.998Z,4.75
2022-12-07T01:33:57.509Z,5.03
2022-12-07T01:36:35.940Z,5.25
2022-12-07T01:39:06.396Z,5.00
2022-12-07T01:41:36.229Z,4.82
2022-12-07T01:44:19.801Z,5.43
2022-12-07T01:47:07.735Z,5.07
2022-12-07T01:49:39.089Z,5.50
2022-12-07T01:52:32.461Z,5.10
2022-12-07T01:55:13.004Z,5.38
2022-12-07T01:57:42.922Z,5.28
2022-12-07T02:00:12.037Z,5.00
2022-12-07T02:02:54.793Z,4.93
2022-12-07T02:05:29.394Z,5.35
2022-12-07T02:08:00.613Z,5.50
2022-12-07T02:10:30.425Z,5.25
2022-12-07T02:15:37.410Z,4.75
2022-12-07T02:18:39.705Z,5.25
2022-12-07T02:21:25.039Z,5.22
2022-12-07T02:24:12.932Z,6.00
2022-12-07T02:27:05.039Z,5.47
2022-12-07T02:29:56.162Z,5.40
2022-12-07T02:32:37.680Z,5.53
2022-12-07T02:35:10.356Z,5.05
2022-12-07T02:38:04.021Z,4.35
2022-12-07T02:40:46.248Z,5.13
2022-12-07T02:43:26.502Z,4.88
2022-12-07T02:45:56.478Z,4.32
2022-12-07T02:48:24.115Z,5.15
2022-12-07T02:50:52.856Z,4.88
2022-12-07T02:53:48.887Z,4.65
2022-12-07T02:56:37.383Z,4.70
2022-12-07T02:59:16.467Z,4.97
2022-12-07T03:01:49.392Z,4.60
2022-12-07T03:05:01.508Z,5.03
2022-12-07T03:07:57.505Z,4.95
2022-12-07T03:10:28.806Z,4.53
2022-12-07T03:13:33.492Z,4.85
2022-12-07T03:16:10.838Z,4.25
2022-12-07T03:18:45.050Z,4.88
2022-12-07T03:21:16.336Z,4.78
2022-12-07T03:23:49.431Z,4.63
2022-12-07T03:26:19.962Z,4.28
2022-12-07T03:28:56.828Z,4.35
2022-12-07T03:31:27.769Z,4.93
2022-12-07T03:34:15.174Z,4.38
2022-12-07T03:36:55.179Z,4.50
2022-12-07T03:39:32.301Z,4.85
2022-12-07T03:42:02.692Z,4.43
2022-12-07T03:44:29.591Z,4.93
2022-12-07T03:47:17.762Z,4.75
2022-12-07T03:49:51.421Z,4.03
2022-12-07T03:52:35.526Z,4.50
2022-12-07T03:55:19.958Z,4.05
2022-12-07T03:57:51.101Z,4.63
2022-12-07T04:00:22.052Z,4.95
2022-12-07T04:02:53.521Z,4.35
2022-12-07T04:05:20.723Z,4.38
2022-12-07T04:07:47.416Z,4.22
2022-12-07T04:10:17.004Z,4.15
2022-12-07T04:12:43.978Z,3.67
2022-12-07T04:15:11.073Z,4.28
2022-12-07T04:17:38.836Z,3.90
2022-12-07T04:20:06.509Z,3.80
2022-12-07T04:22:33.234Z,4.40
2022-12-07T04:25:02.362Z,4.00
2022-12-07T04:27:29.014Z,3.87
2022-12-07T04:29:56.683Z,4.38
2022-12-07T04:32:24.770Z,4.47
2022-12-07T04:34:55.356Z,4.03
2022-12-07T04:37:23.121Z,4.07
2022-12-07T04:39:50.406Z,4.47
2022-12-07T04:42:17.088Z,4.07
2022-12-07T04:44:43.795Z,4.20
2022-12-07T04:47:10.475Z,3.60
2022-12-07T04:49:39.847Z,3.88
2022-12-07T04:52:06.553Z,5.00
2022-12-07T04:54:33.572Z,4.20
2022-12-07T04:57:03.439Z,4.65
2022-12-07T05:02:01.080Z,4.20
2022-12-07T05:04:27.772Z,3.92
2022-12-07T05:06:54.852Z,4.05
2022-12-07T05:09:26.604Z,4.85
2022-12-07T05:11:55.900Z,4.30
2022-12-07T05:14:22.634Z,4.38
2022-12-07T05:16:51.921Z,4.47
2022-12-07T05:19:20.157Z,4.18
2022-12-07T05:21:47.276Z,4.35
2022-12-07T05:24:16.413Z,4.53
2022-12-07T05:26:43.326Z,5.35
2022-12-07T05:29:12.896Z,4.15
2022-12-07T05:31:39.799Z,4.10
2022-12-07T05:34:06.527Z,4.18
2022-12-07T05:36:33.319Z,5.57
2022-12-07T05:39:00.108Z,4.18
2022-12-07T05:41:45.808Z,4.07
2022-12-07T05:44:12.548Z,4.20
2022-12-07T05:46:39.119Z,4.20
2022-12-07T05:49:05.792Z,4.75
2022-12-07T05:51:32.535Z,4.53
2022-12-07T05:53:59.186Z,5.25
2022-12-07T05:56:25.876Z,4.28
2022-12-07T05:59:11.144Z,4.80
2022-12-07T06:01:38.534Z,5.10
2022-12-07T06:04:05.221Z,3.78
2022-12-07T06:06:31.795Z,4.60
2022-12-07T06:08:58.572Z,3.45
2022-12-07T06:11:43.774Z,4.30
2022-12-07T06:14:10.496Z,4.15
2022-12-07T06:16:37.241Z,4.63
2022-12-07T06:19:03.897Z,3.78
2022-12-07T06:21:30.796Z,3.80
2022-12-07T06:23:57.603Z,4.15
2022-12-07T06:26:24.396Z,3.83
2022-12-07T06:28:51.404Z,4.10
2022-12-07T06:31:18.372Z,4.57
2022-12-07T06:33:45.213Z,4.47
2022-12-07T06:36:12.592Z,5.25
2022-12-07T06:38:39.584Z,5.78
2022-12-07T06:41:07.569Z,4.93
2022-12-07T06:43:34.561Z,4.30
2022-12-07T06:46:01.762Z,4.03
2022-12-07T06:48:28.457Z,4.80
2022-12-07T06:50:55.617Z,5.68
2022-12-07T06:53:22.819Z,3.95
2022-12-07T06:55:49.758Z,4.60
2022-12-07T06:58:16.562Z,4.63
2022-12-07T07:00:43.638Z,5.30
2022-12-07T07:03:10.301Z,4.82
2022-12-07T07:05:36.969Z,5.25
2022-12-07T07:10:50.570Z,7.38
2022-12-07T07:13:17.590Z,5.00
2022-12-07T07:15:44.346Z,5.47
2022-12-07T07:18:11.099Z,4.93
2022-12-07T07:20:38.104Z,5.00
2022-12-07T07:23:05.156Z,5.32
2022-12-07T07:25:32.861Z,6.07
2022-12-07T07:27:59.609Z,5.40
2022-12-07T07:30:26.713Z,6.35
2022-12-07T07:32:58.187Z,5.35
2022-12-07T07:35:25.761Z,5.28
2022-12-07T07:37:52.370Z,5.40
2022-12-07T07:40:19.202Z,5.53
2022-12-07T07:42:49.232Z,8.25
2022-12-07T07:45:16.295Z,8.43
2022-12-07T07:47:42.954Z,8.18
2022-12-07T07:50:10.037Z,7.40
2022-12-07T07:52:36.617Z,6.72
2022-12-07T07:55:03.719Z,6.60
2022-12-07T07:57:30.461Z,6.38
2022-12-07T07:59:57.011Z,6.07
2022-12-07T08:02:24.230Z,6.57
2022-12-07T08:04:51.038Z,6.63
2022-12-07T08:07:17.733Z,5.78
2022-12-07T08:09:44.398Z,6.75
2022-12-07T08:12:11.140Z,6.68
2022-12-07T08:14:37.880Z,6.50
2022-12-07T08:17:04.861Z,6.85
2022-12-07T08:19:31.601Z,7.00
2022-12-07T08:21:58.372Z,6.68
2022-12-07T08:24:26.030Z,5.72
2022-12-07T08:26:53.505Z,6.38
2022-12-07T08:29:20.239Z,6.10
2022-12-07T08:31:47.203Z,6.03
2022-12-07T08:34:14.415Z,6.95
2022-12-07T08:36:41.328Z,5.47
2022-12-07T08:39:30.825Z,6.53
2022-12-07T08:41:54.633Z,6.22
2022-12-07T08:44:21.195Z,7.18
2022-12-07T08:47:09.072Z,6.68
2022-12-07T08:49:40.953Z,5.88
2022-12-07T08:52:08.024Z,7.05
2022-12-07T08:54:38.792Z,6.47
2022-12-07T08:57:07.204Z,6.70
2022-12-07T08:59:36.108Z,6.35
2022-12-07T09:02:02.807Z,6.50
2022-12-07T09:04:29.581Z,7.55
2022-12-07T09:06:57.256Z,6.35
2022-12-07T09:09:23.913Z,6.20
2022-12-07T09:11:50.698Z,6.75
2022-12-07T09:14:18.263Z,6.72
2022-12-07T09:16:45.269Z,6.25
2022-12-07T09:19:12.012Z,6.20
2022-12-07T09:21:38.692Z,15.90
2022-12-07T09:24:05.642Z,6.40
2022-12-07T09:26:32.330Z,6.28
2022-12-07T09:28:59.045Z,6.32
2022-12-07T09:31:27.405Z,6.00
2022-12-07T09:34:02.050Z,6.15
2022-12-07T09:36:29.626Z,6.47
2022-12-07T09:38:56.401Z,7.88
2022-12-07T09:41:25.332Z,6.72
2022-12-07T09:43:54.539Z,6.90
2022-12-07T09:46:22.261Z,6.30
2022-12-07T09:48:51.634Z,7.28
2022-12-07T09:51:25.914Z,7.30
2022-12-07T09:53:56.082Z,6.68
2022-12-07T09:56:24.391Z,6.57
2022-12-07T09:58:58.747Z,6.43
2022-12-07T10:01:25.870Z,5.57
2022-12-07T10:03:54.279Z,5.50
2022-12-07T10:06:22.202Z,5.60
2022-12-07T10:08:49.382Z,6.10
2022-12-07T10:11:17.379Z,6.35
2022-12-07T10:13:50.191Z,7.03
2022-12-07T10:16:41.791Z,6.75
2022-12-07T10:19:19.701Z,8.00
2022-12-07T10:22:03.590Z,7.03
2022-12-07T10:24:31.144Z,6.63
2022-12-07T10:26:58.843Z,6.53
2022-12-07T10:29:39.437Z,6.30
2022-12-07T10:32:08.016Z,5.50
2022-12-07T10:34:42.208Z,5.45
2022-12-07T10:37:21.311Z,5.45
2022-12-07T10:39:50.480Z,5.60
2022-12-07T10:42:23.190Z,7.05
2022-12-07T10:45:08.199Z,5.30
2022-12-07T10:47:40.063Z,4.82
2022-12-07T10:50:19.864Z,5.97
2022-12-07T10:55:51.282Z,5.28
2022-12-07T10:58:39.897Z,5.30
2022-12-07T11:01:35.644Z,4.40
2022-12-07T11:04:26.616Z,4.25
2022-12-07T11:07:02.946Z,4.55
2022-12-07T11:10:19.198Z,4.53
2022-12-07T11:13:17.915Z,4.63
2022-12-07T11:15:53.788Z,4.88
2022-12-07T11:18:49.683Z,4.38
2022-12-07T11:21:31.393Z,4.32
2022-12-07T11:24:18.317Z,3.65
2022-12-07T11:27:06.556Z,4.28
2022-12-07T11:29:48.403Z,4.60
2022-12-07T11:32:23.481Z,3.90
2022-12-07T11:35:17.054Z,4.25
2022-12-07T11:37:47.394Z,3.67
2022-12-07T11:40:27.211Z,4.10
2022-12-07T11:43:05.707Z,4.43
2022-12-07T11:45:36.088Z,4.30
2022-12-07T11:48:12.543Z,3.17
2022-12-07T11:50:44.871Z,4.20
2022-12-07T11:53:15.163Z,4.15
2022-12-07T11:55:57.109Z,4.22
2022-12-07T11:58:45.860Z,4.50
2022-12-07T12:01:32.065Z,4.20
2022-12-07T12:04:11.051Z,4.13
2022-12-07T12:06:43.739Z,5.77
2022-12-07T12:20:17.273Z,3.03
2022-12-07T12:46:50.125Z,2.05
2022-12-07T12:49:18.130Z,2.15
2022-12-07T12:51:52.553Z,2.15
2022-12-07T12:54:19.226Z,1.88
2022-12-07T12:57:07.757Z,1.92
2022-12-07T12:59:42.940Z,2.42
2022-12-07T13:02:24.119Z,2.38
2022-12-07T13:04:58.548Z,2.03
2022-12-07T13:07:53.728Z,2.50
2022-12-07T13:10:35.691Z,1.67
2022-12-07T13:13:20.010Z,2.00
2022-12-07T13:15:54.970Z,2.25
2022-12-07T13:18:31.964Z,2.15
2022-12-07T13:21:07.941Z,2.15
2022-12-07T13:23:46.731Z,1.58
2022-12-07T13:26:44.990Z,0.98
2022-12-07T13:29:22.411Z,2.38
2022-12-07T13:31:54.842Z,1.77
2022-12-07T13:34:36.513Z,2.22
2022-12-07T13:37:13.702Z,1.17
2022-12-07T13:39:50.126Z,2.00
2022-12-07T13:42:30.779Z,1.38
2022-12-07T13:45:02.145Z,1.08
2022-12-07T13:47:52.114Z,1.25
2022-12-07T13:52:57.263Z,1.10
2022-12-07T13:55:24.398Z,0.93
2022-12-07T13:57:56.853Z,1.50
2022-12-07T14:00:29.365Z,1.33
2022-12-07T14:03:05.369Z,1.40
2022-12-07T14:05:34.301Z,2.05
2022-12-07T14:08:10.051Z,1.73
2022-12-07T14:10:50.665Z,2.25
2022-12-07T14:13:42.001Z,1.50
2022-12-07T14:16:29.896Z,2.05
2022-12-07T14:19:03.182Z,2.00
2022-12-07T14:21:32.645Z,2.10
2022-12-07T14:24:13.384Z,3.80
2022-12-07T14:26:41.435Z,1.92
2022-12-07T14:29:38.647Z,2.00
2022-12-07T14:32:24.898Z,1.30
2022-12-07T14:35:01.597Z,2.00
2022-12-07T14:37:30.829Z,1.85
2022-12-07T14:39:57.707Z,0.80
2022-12-07T14:42:28.957Z,1.13
2022-12-07T14:44:56.634Z,1.80
2022-12-07T14:50:16.849Z,1.50
2022-12-07T14:55:34.565Z,2.00
2022-12-07T14:58:02.017Z,1.50
2022-12-07T15:00:29.994Z,1.20
2022-12-07T15:02:57.392Z,1.27
2022-12-07T15:05:24.414Z,1.08
2022-12-07T15:07:51.772Z,1.65
2022-12-07T15:10:24.454Z,1.00
2022-12-07T15:12:51.893Z,1.23
2022-12-07T15:15:18.774Z,2.83
2022-12-07T15:17:45.442Z,1.73
2022-12-07T15:20:21.367Z,1.05
2022-12-07T15:22:50.565Z,0.98
2022-12-07T15:25:17.767Z,0.77
2022-12-07T15:27:44.492Z,2.60
2022-12-07T15:30:11.443Z,3.00
2022-12-07T15:32:38.537Z,1.70
2022-12-07T15:35:08.982Z,1.90
2022-12-07T15:37:39.595Z,1.92
2022-12-07T15:40:08.240Z,2.28
2022-12-07T15:42:37.065Z,2.03
2022-12-07T15:45:06.421Z,2.40
2022-12-07T15:48:02.793Z,1.77
2022-12-07T15:50:26.338Z,1.30
2022-12-07T15:52:52.969Z,1.85
2022-12-07T15:55:19.688Z,5.07
2022-12-07T15:57:46.392Z,2.17
2022-12-07T16:00:14.050Z,2.85
2022-12-07T16:02:40.917Z,2.25
2022-12-07T16:05:08.209Z,2.80
2022-12-07T16:07:34.986Z,4.60
2022-12-07T16:10:02.097Z,4.82
2022-12-07T16:12:31.794Z,3.30
2022-12-07T16:14:58.556Z,3.50
2022-12-07T16:17:25.409Z,3.05
2022-12-07T16:19:52.226Z,4.05
2022-12-07T16:22:19.350Z,3.20
2022-12-07T16:24:45.934Z,2.70
2022-12-07T16:27:12.760Z,3.05
2022-12-07T16:29:39.588Z,3.42
2022-12-07T16:32:06.536Z,2.50
2022-12-07T16:34:33.806Z,3.03
2022-12-07T16:37:05.286Z,7.68
2022-12-07T16:39:34.144Z,3.80
2022-12-07T16:42:01.255Z,5.07
2022-12-07T16:44:28.428Z,2.95
2022-12-07T16:46:58.609Z,3.03
2022-12-07T16:49:27.935Z,2.78
2022-12-07T16:52:18.320Z,3.72
2022-12-07T16:54:42.799Z,3.60
2022-12-07T16:57:15.513Z,3.45
2022-12-07T16:59:46.768Z,3.55
2022-12-07T17:02:13.608Z,3.00
2022-12-07T17:04:43.592Z,4.03
2022-12-07T17:07:13.357Z,3.80
2022-12-07T17:09:40.299Z,4.97
2022-12-07T17:12:07.941Z,4.22
2022-12-07T17:14:53.195Z,5.28
2022-12-07T17:17:20.202Z,4.78
2022-12-07T17:19:46.980Z,4.85
2022-12-07T17:22:16.348Z,3.88
2022-12-07T17:24:45.669Z,3.97
2022-12-07T17:27:12.347Z,4.05
2022-12-07T17:29:38.940Z,4.43
2022-12-07T17:32:06.048Z,4.53
2022-12-07T17:34:32.999Z,5.03
2022-12-07T17:37:00.134Z,4.53
2022-12-07T17:39:29.995Z,4.55
2022-12-07T17:44:41.970Z,4.60
2022-12-07T17:47:11.042Z,5.20
2022-12-07T17:49:37.810Z,4.65
2022-12-07T17:52:28.228Z,5.68
2022-12-07T17:54:54.969Z,5.97
2022-12-07T17:57:23.025Z,7.07
2022-12-07T17:59:49.851Z,5.85
2022-12-07T18:02:17.005Z,5.82
2022-12-07T18:04:44.216Z,4.38
2022-12-07T18:07:11.009Z,4.57
2022-12-07T18:09:37.761Z,5.13
2022-12-07T18:12:05.042Z,5.47
2022-12-07T18:14:32.464Z,5.22
2022-12-07T18:16:59.158Z,7.88
2022-12-07T18:19:26.138Z,5.85
2022-12-07T18:21:55.905Z,6.07
2022-12-07T18:26:49.221Z,6.50
2022-12-07T18:29:18.022Z,5.65
2022-12-07T18:31:46.874Z,4.50
2022-12-07T18:34:15.854Z,7.10
2022-12-07T18:36:47.877Z,5.90
2022-12-07T18:39:16.157Z,7.75
2022-12-07T18:41:43.069Z,5.35
2022-12-07T18:44:12.736Z,5.95
2022-12-07T18:46:42.278Z,5.72
2022-12-07T18:49:12.433Z,7.00
2022-12-07T18:51:39.708Z,5.70
2022-12-07T18:54:07.670Z,5.32
2022-12-07T18:56:34.611Z,5.90
2022-12-07T18:59:21.318Z,5.95
2022-12-07T19:01:51.950Z,5.32
2022-12-07T19:04:18.864Z,5.07
2022-12-07T19:06:50.188Z,5.72
2022-12-07T19:09:18.125Z,6.85
2022-12-07T19:11:51.139Z,10.27
2022-12-07T19:14:22.078Z,6.28
2022-12-07T19:16:50.809Z,7.28
2022-12-07T19:19:20.051Z,6.25
2022-12-07T19:21:47.490Z,6.07
2022-12-07T19:24:19.751Z,6.75
2022-12-07T19:26:49.699Z,8.15
2022-12-07T19:29:16.542Z,10.27
2022-12-07T19:31:43.528Z,7.45
2022-12-07T19:34:16.094Z,9.75
2022-12-07T19:36:43.622Z,9.07
2022-12-07T19:39:15.424Z,9.85
2022-12-07T19:41:44.231Z,9.18
2022-12-07T19:44:17.610Z,8.02
2022-12-07T19:46:52.375Z,9.25
2022-12-07T19:49:20.595Z,9.13
2022-12-07T19:51:52.660Z,7.88
2022-12-07T19:54:24.575Z,8.48
2022-12-07T19:56:52.672Z,9.00
2022-12-07T19:59:21.561Z,7.90
2022-12-07T20:01:49.639Z,9.75
2022-12-07T20:04:21.670Z,9.00
2022-12-07T20:06:54.539Z,13.77
2022-12-07T20:09:21.859Z,8.75
2022-12-07T20:12:06.998Z,8.13
2022-12-07T20:14:34.072Z,7.15
2022-12-07T20:17:01.371Z,7.53
2022-12-07T20:19:28.493Z,8.65
2022-12-07T20:21:56.050Z,8.77
2022-12-07T20:24:24.965Z,8.48
2022-12-07T20:26:53.603Z,7.78
2022-12-07T20:29:24.151Z,7.28
2022-12-07T20:31:52.379Z,7.55
2022-12-07T20:34:21.919Z,9.23
2022-12-07T20:36:49.194Z,7.93
2022-12-07T20:39:16.211Z,7.88
2022-12-07T20:42:01.399Z,8.38
2022-12-07T20:44:28.364Z,8.95
2022-12-07T20:46:55.294Z,8.88
2022-12-07T20:49:22.328Z,8.10
2022-12-07T20:51:49.231Z,8.55
2022-12-07T20:54:15.840Z,9.30
2022-12-07T20:56:42.627Z,9.05
2022-12-07T20:59:13.090Z,8.88
2022-12-07T21:01:40.172Z,10.02
2022-12-07T21:04:07.294Z,8.20
2022-12-07T21:06:34.375Z,9.43
2022-12-07T21:09:01.059Z,8.50
2022-12-07T21:11:29.398Z,8.45
2022-12-07T21:13:56.264Z,9.88
2022-12-07T21:16:29.832Z,7.78
2022-12-07T21:18:59.966Z,7.93
2022-12-07T21:21:26.755Z,8.80
2022-12-07T21:24:00.265Z,9.10
2022-12-07T21:26:30.249Z,7.68
2022-12-07T21:28:57.475Z,7.43
2022-12-07T21:31:24.768Z,7.35
2022-12-07T21:33:51.613Z,7.28
2022-12-07T21:36:24.039Z,8.07
2022-12-07T21:38:50.743Z,7.15
2022-12-07T21:41:22.905Z,8.07
2022-12-07T21:43:50.266Z,7.68
2022-12-07T21:46:18.746Z,8.00
2022-12-07T21:49:02.034Z,7.53
2022-12-07T21:51:30.767Z,7.63
2022-12-07T21:53:59.396Z,7.10
2022-12-07T21:56:29.805Z,7.85
2022-12-07T21:59:01.000Z,7.15
2022-12-07T22:01:30.486Z,7.32
2022-12-07T22:03:57.105Z,8.10
2022-12-07T22:06:26.088Z,7.82
2022-12-07T22:08:54.160Z,7.90
2022-12-07T22:11:22.417Z,6.95
2022-12-07T22:14:11.103Z,6.90
2022-12-07T22:16:39.424Z,6.93
2022-12-07T22:19:09.498Z,8.05
2022-12-07T22:21:36.388Z,8.02
2022-12-07T22:24:04.530Z,7.85
2022-12-07T22:26:34.143Z,7.22
2022-12-07T22:29:01.606Z,7.38
2022-12-07T22:31:31.728Z,9.73
2022-12-07T22:33:58.636Z,7.40
2022-12-07T22:36:25.643Z,7.35
2022-12-07T22:38:52.270Z,6.72
2022-12-07T22:41:29.718Z,7.10
2022-12-07T22:43:57.308Z,7.05
2022-12-07T22:46:25.183Z,7.22
2022-12-07T22:48:53.228Z,6.15
2022-12-07T22:51:28.520Z,7.47
2022-12-07T22:53:55.898Z,7.25
2022-12-07T22:56:29.135Z,7.57
2022-12-07T22:58:56.691Z,7.30
2022-12-07T23:01:34.038Z,7.30
2022-12-07T23:04:01.226Z,7.95
2022-12-07T23:06:32.024Z,9.07
2022-12-07T23:09:04.330Z,8.27
2022-12-07T23:11:51.587Z,8.10
2022-12-07T23:14:26.474Z,8.82
2022-12-07T23:16:53.146Z,9.18
2022-12-07T23:19:20.039Z,8.95
2022-12-07T23:21:47.160Z,8.60
2022-12-07T23:24:20.078Z,8.73
2022-12-07T23:26:47.147Z,8.88
2022-12-07T23:29:18.113Z,10.95
2022-12-07T23:31:51.631Z,7.95
2022-12-07T23:34:21.100Z,9.57
2022-12-07T23:36:47.734Z,7.93
2022-12-07T23:39:17.335Z,7.90
2022-12-07T23:41:50.226Z,6.82
2022-12-07T23:44:20.400Z,6.43
2022-12-07T23:46:47.255Z,7.53
2022-12-07T23:49:14.061Z,7.03
2022-12-07T23:51:41.417Z,7.78
2022-12-07T23:54:16.200Z,6.80
2022-12-07T23:56:49.064Z,7.78
2022-12-07T23:59:21.617Z,6.95
